sensor_id;sensor_type;location;lat;lon;timestamp;P1;durP1;ratioP1;P2;durP2;ratioP2
9115;SDS011;4593;53.652;10.168;2023-07-13T00:00:18;5.27;;;3.00;;
9115;SDS011;4593;53.652;10.168;2023-07-13T00:02:44;3.50;;;2.80;;
9115;SDS011;4593;53.652;10.168;2023-07-13T00:05:10;2.83;;;2.53;;
9115;SDS011;4593;53.652;10.168;2023-07-13T00:07:36;6.83;;;2.80;;
9115;SDS011;4593;53.652;10.168;2023-07-13T00:10:03;3.27;;;2.80;;
9115;SDS011;4593;53.652;10.168;2023-07-13T00:12:30;2.90;;;2.60;;
9115;SDS011;4593;53.652;10.168;2023-07-13T00:15:01;3.30;;;2.70;;
9115;SDS011;4593;53.652;10.168;2023-07-13T00:17:30;4.87;;;3.00;;
9115;SDS011;4593;53.652;10.168;2023-07-13T00:19:56;4.10;;;2.90;;
9115;SDS011;4593;53.652;10.168;2023-07-13T00:22:23;2.90;;;2.40;;
9115;SDS011;4593;53.652;10.168;2023-07-13T00:24:50;3.43;;;2.77;;
9115;SDS011;4593;53.652;10.168;2023-07-13T00:27:17;2.60;;;2.37;;
9115;SDS011;4593;53.652;10.168;2023-07-13T00:29:43;2.90;;;2.60;;
9115;SDS011;4593;53.652;10.168;2023-07-13T00:32:09;2.63;;;2.40;;
9115;SDS011;4593;53.652;10.168;2023-07-13T00:34:37;3.70;;;2.83;;
9115;SDS011;4593;53.652;10.168;2023-07-13T00:37:06;4.93;;;3.00;;
9115;SDS011;4593;53.652;10.168;2023-07-13T00:39:33;5.13;;;3.27;;
9115;SDS011;4593;53.652;10.168;2023-07-13T00:41:59;3.87;;;2.70;;
9115;SDS011;4593;53.652;10.168;2023-07-13T00:44:25;3.33;;;2.77;;
9115;SDS011;4593;53.652;10.168;2023-07-13T00:46:51;3.53;;;2.70;;
9115;SDS011;4593;53.652;10.168;2023-07-13T00:49:18;5.27;;;3.00;;
9115;SDS011;4593;53.652;10.168;2023-07-13T00:51:58;3.17;;;2.60;;
9115;SDS011;4593;53.652;10.168;2023-07-13T00:54:34;7.20;;;2.90;;
9115;SDS011;4593;53.652;10.168;2023-07-13T00:57:06;2.57;;;2.37;;
9115;SDS011;4593;53.652;10.168;2023-07-13T00:59:34;3.03;;;2.73;;
9115;SDS011;4593;53.652;10.168;2023-07-13T01:02:02;3.07;;;2.67;;
9115;SDS011;4593;53.652;10.168;2023-07-13T01:04:28;3.07;;;2.83;;
9115;SDS011;4593;53.652;10.168;2023-07-13T01:06:55;3.13;;;2.83;;
9115;SDS011;4593;53.652;10.168;2023-07-13T01:09:22;3.17;;;2.43;;
9115;SDS011;4593;53.652;10.168;2023-07-13T01:11:47;3.23;;;2.73;;
9115;SDS011;4593;53.652;10.168;2023-07-13T01:14:14;3.47;;;2.70;;
9115;SDS011;4593;53.652;10.168;2023-07-13T01:16:40;2.53;;;2.33;;
9115;SDS011;4593;53.652;10.168;2023-07-13T01:19:14;4.03;;;2.90;;
9115;SDS011;4593;53.652;10.168;2023-07-13T01:21:49;3.43;;;2.80;;
9115;SDS011;4593;53.652;10.168;2023-07-13T01:24:15;5.00;;;2.83;;
9115;SDS011;4593;53.652;10.168;2023-07-13T01:26:41;4.33;;;3.17;;
9115;SDS011;4593;53.652;10.168;2023-07-13T01:29:07;3.93;;;3.20;;
9115;SDS011;4593;53.652;10.168;2023-07-13T01:31:33;6.63;;;3.20;;
9115;SDS011;4593;53.652;10.168;2023-07-13T01:34:00;2.80;;;2.60;;
9115;SDS011;4593;53.652;10.168;2023-07-13T01:36:25;4.07;;;2.63;;
9115;SDS011;4593;53.652;10.168;2023-07-13T01:38:51;2.80;;;2.57;;
9115;SDS011;4593;53.652;10.168;2023-07-13T01:41:17;4.37;;;3.20;;
9115;SDS011;4593;53.652;10.168;2023-07-13T01:43:42;3.53;;;2.93;;
9115;SDS011;4593;53.652;10.168;2023-07-13T01:46:08;3.73;;;2.93;;
9115;SDS011;4593;53.652;10.168;2023-07-13T01:48:34;4.57;;;2.80;;
9115;SDS011;4593;53.652;10.168;2023-07-13T01:50:59;3.37;;;2.60;;
9115;SDS011;4593;53.652;10.168;2023-07-13T01:53:25;3.33;;;2.83;;
9115;SDS011;4593;53.652;10.168;2023-07-13T01:55:51;3.53;;;2.63;;
9115;SDS011;4593;53.652;10.168;2023-07-13T01:58:17;4.07;;;2.83;;
9115;SDS011;4593;53.652;10.168;2023-07-13T02:00:43;4.17;;;3.00;;
9115;SDS011;4593;53.652;10.168;2023-07-13T02:03:09;3.33;;;2.50;;
9115;SDS011;4593;53.652;10.168;2023-07-13T02:05:36;6.23;;;2.80;;
9115;SDS011;4593;53.652;10.168;2023-07-13T02:08:02;2.80;;;2.60;;
9115;SDS011;4593;53.652;10.168;2023-07-13T02:10:28;5.00;;;2.80;;
9115;SDS011;4593;53.652;10.168;2023-07-13T02:12:53;4.87;;;2.80;;
9115;SDS011;4593;53.652;10.168;2023-07-13T02:15:19;2.90;;;2.60;;
9115;SDS011;4593;53.652;10.168;2023-07-13T02:17:45;5.33;;;3.27;;
9115;SDS011;4593;53.652;10.168;2023-07-13T02:20:11;2.57;;;2.37;;
9115;SDS011;4593;53.652;10.168;2023-07-13T02:22:37;3.00;;;2.70;;
9115;SDS011;4593;53.652;10.168;2023-07-13T02:25:03;4.60;;;2.97;;
9115;SDS011;4593;53.652;10.168;2023-07-13T02:27:28;3.27;;;2.77;;
9115;SDS011;4593;53.652;10.168;2023-07-13T02:29:54;4.10;;;3.00;;
9115;SDS011;4593;53.652;10.168;2023-07-13T02:32:20;4.20;;;3.40;;
9115;SDS011;4593;53.652;10.168;2023-07-13T02:34:46;5.63;;;3.10;;
9115;SDS011;4593;53.652;10.168;2023-07-13T02:37:11;3.40;;;3.03;;
9115;SDS011;4593;53.652;10.168;2023-07-13T02:39:37;3.27;;;2.90;;
9115;SDS011;4593;53.652;10.168;2023-07-13T02:42:03;3.13;;;2.80;;
9115;SDS011;4593;53.652;10.168;2023-07-13T02:44:29;3.80;;;3.10;;
9115;SDS011;4593;53.652;10.168;2023-07-13T02:46:54;3.67;;;3.33;;
9115;SDS011;4593;53.652;10.168;2023-07-13T02:49:20;8.07;;;3.57;;
9115;SDS011;4593;53.652;10.168;2023-07-13T02:51:46;3.80;;;2.93;;
9115;SDS011;4593;53.652;10.168;2023-07-13T02:54:12;4.20;;;3.20;;
9115;SDS011;4593;53.652;10.168;2023-07-13T02:56:38;4.13;;;3.53;;
9115;SDS011;4593;53.652;10.168;2023-07-13T02:59:05;3.37;;;3.07;;
9115;SDS011;4593;53.652;10.168;2023-07-13T03:01:30;3.90;;;3.47;;
9115;SDS011;4593;53.652;10.168;2023-07-13T03:03:57;6.43;;;3.50;;
9115;SDS011;4593;53.652;10.168;2023-07-13T03:06:23;3.70;;;3.17;;
9115;SDS011;4593;53.652;10.168;2023-07-13T03:08:49;5.40;;;3.87;;
9115;SDS011;4593;53.652;10.168;2023-07-13T03:11:17;3.87;;;3.53;;
9115;SDS011;4593;53.652;10.168;2023-07-13T03:13:44;6.20;;;3.90;;
9115;SDS011;4593;53.652;10.168;2023-07-13T03:16:10;5.67;;;3.97;;
9115;SDS011;4593;53.652;10.168;2023-07-13T03:18:36;4.30;;;3.90;;
9115;SDS011;4593;53.652;10.168;2023-07-13T03:21:03;5.37;;;3.73;;
9115;SDS011;4593;53.652;10.168;2023-07-13T03:23:29;4.43;;;3.60;;
9115;SDS011;4593;53.652;10.168;2023-07-13T03:26:28;4.60;;;3.33;;
9115;SDS011;4593;53.652;10.168;2023-07-13T03:28:47;4.87;;;3.93;;
9115;SDS011;4593;53.652;10.168;2023-07-13T03:31:14;7.83;;;3.73;;
9115;SDS011;4593;53.652;10.168;2023-07-13T03:33:42;5.90;;;4.00;;
9115;SDS011;4593;53.652;10.168;2023-07-13T03:36:11;4.40;;;4.00;;
9115;SDS011;4593;53.652;10.168;2023-07-13T03:38:38;4.90;;;4.00;;
9115;SDS011;4593;53.652;10.168;2023-07-13T03:41:04;5.07;;;3.90;;
9115;SDS011;4593;53.652;10.168;2023-07-13T03:43:30;8.43;;;4.30;;
9115;SDS011;4593;53.652;10.168;2023-07-13T03:45:55;4.13;;;3.70;;
9115;SDS011;4593;53.652;10.168;2023-07-13T03:48:21;6.53;;;4.67;;
9115;SDS011;4593;53.652;10.168;2023-07-13T03:50:47;4.43;;;3.57;;
9115;SDS011;4593;53.652;10.168;2023-07-13T03:53:14;6.10;;;4.30;;
9115;SDS011;4593;53.652;10.168;2023-07-13T03:55:40;5.93;;;4.67;;
9115;SDS011;4593;53.652;10.168;2023-07-13T04:00:53;7.13;;;4.40;;
9115;SDS011;4593;53.652;10.168;2023-07-13T04:03:19;5.10;;;3.87;;
9115;SDS011;4593;53.652;10.168;2023-07-13T04:05:45;6.37;;;4.63;;
9115;SDS011;4593;53.652;10.168;2023-07-13T04:08:11;6.50;;;5.47;;
9115;SDS011;4593;53.652;10.168;2023-07-13T04:10:36;6.17;;;4.43;;
9115;SDS011;4593;53.652;10.168;2023-07-13T04:13:03;9.23;;;4.90;;
9115;SDS011;4593;53.652;10.168;2023-07-13T04:15:30;6.13;;;4.70;;
9115;SDS011;4593;53.652;10.168;2023-07-13T04:17:56;5.23;;;4.47;;
9115;SDS011;4593;53.652;10.168;2023-07-13T04:20:22;5.30;;;4.80;;
9115;SDS011;4593;53.652;10.168;2023-07-13T04:22:49;6.23;;;4.63;;
9115;SDS011;4593;53.652;10.168;2023-07-13T04:25:15;5.30;;;4.63;;
9115;SDS011;4593;53.652;10.168;2023-07-13T04:27:40;5.30;;;4.27;;
9115;SDS011;4593;53.652;10.168;2023-07-13T04:30:06;6.07;;;4.73;;
9115;SDS011;4593;53.652;10.168;2023-07-13T04:32:33;5.07;;;4.33;;
9115;SDS011;4593;53.652;10.168;2023-07-13T04:34:59;4.63;;;4.00;;
9115;SDS011;4593;53.652;10.168;2023-07-13T04:37:25;6.20;;;4.60;;
9115;SDS011;4593;53.652;10.168;2023-07-13T04:39:54;7.50;;;4.30;;
9115;SDS011;4593;53.652;10.168;2023-07-13T04:42:20;5.80;;;4.57;;
9115;SDS011;4593;53.652;10.168;2023-07-13T04:44:49;6.40;;;4.10;;
9115;SDS011;4593;53.652;10.168;2023-07-13T04:47:15;7.60;;;3.97;;
9115;SDS011;4593;53.652;10.168;2023-07-13T04:49:41;5.43;;;4.13;;
9115;SDS011;4593;53.652;10.168;2023-07-13T04:52:06;5.63;;;4.60;;
9115;SDS011;4593;53.652;10.168;2023-07-13T04:54:33;12.53;;;5.07;;
9115;SDS011;4593;53.652;10.168;2023-07-13T04:56:59;8.60;;;4.77;;
9115;SDS011;4593;53.652;10.168;2023-07-13T04:59:24;5.90;;;4.33;;
9115;SDS011;4593;53.652;10.168;2023-07-13T05:01:50;8.43;;;4.07;;
9115;SDS011;4593;53.652;10.168;2023-07-13T05:04:16;4.77;;;4.30;;
9115;SDS011;4593;53.652;10.168;2023-07-13T05:06:42;7.73;;;4.53;;
9115;SDS011;4593;53.652;10.168;2023-07-13T05:09:08;10.03;;;6.77;;
9115;SDS011;4593;53.652;10.168;2023-07-13T05:11:34;7.70;;;5.07;;
9115;SDS011;4593;53.652;10.168;2023-07-13T05:13:59;9.03;;;4.83;;
9115;SDS011;4593;53.652;10.168;2023-07-13T05:16:26;6.87;;;4.67;;
9115;SDS011;4593;53.652;10.168;2023-07-13T05:18:53;5.03;;;4.47;;
9115;SDS011;4593;53.652;10.168;2023-07-13T05:21:18;8.00;;;4.03;;
9115;SDS011;4593;53.652;10.168;2023-07-13T05:23:44;6.00;;;4.50;;
9115;SDS011;4593;53.652;10.168;2023-07-13T05:26:10;5.73;;;4.10;;
9115;SDS011;4593;53.652;10.168;2023-07-13T05:28:36;7.23;;;4.03;;
9115;SDS011;4593;53.652;10.168;2023-07-13T05:31:02;5.43;;;4.20;;
9115;SDS011;4593;53.652;10.168;2023-07-13T05:33:29;5.87;;;4.00;;
9115;SDS011;4593;53.652;10.168;2023-07-13T05:35:55;11.37;;;4.63;;
9115;SDS011;4593;53.652;10.168;2023-07-13T05:38:20;8.43;;;4.07;;
9115;SDS011;4593;53.652;10.168;2023-07-13T05:40:46;3.93;;;3.53;;
9115;SDS011;4593;53.652;10.168;2023-07-13T05:43:12;5.80;;;4.50;;
9115;SDS011;4593;53.652;10.168;2023-07-13T05:45:39;5.23;;;4.40;;
9115;SDS011;4593;53.652;10.168;2023-07-13T05:48:05;14.00;;;3.87;;
9115;SDS011;4593;53.652;10.168;2023-07-13T05:50:31;13.00;;;4.60;;
9115;SDS011;4593;53.652;10.168;2023-07-13T05:52:56;6.43;;;3.70;;
9115;SDS011;4593;53.652;10.168;2023-07-13T05:55:22;6.30;;;3.00;;
9115;SDS011;4593;53.652;10.168;2023-07-13T05:57:48;4.03;;;3.10;;
9115;SDS011;4593;53.652;10.168;2023-07-13T06:00:14;8.77;;;3.30;;
9115;SDS011;4593;53.652;10.168;2023-07-13T06:02:40;5.70;;;3.20;;
9115;SDS011;4593;53.652;10.168;2023-07-13T06:05:06;3.77;;;2.93;;
9115;SDS011;4593;53.652;10.168;2023-07-13T06:07:32;7.90;;;3.33;;
9115;SDS011;4593;53.652;10.168;2023-07-13T06:09:57;6.00;;;3.30;;
9115;SDS011;4593;53.652;10.168;2023-07-13T06:12:24;8.27;;;3.03;;
9115;SDS011;4593;53.652;10.168;2023-07-13T06:14:51;5.00;;;2.60;;
9115;SDS011;4593;53.652;10.168;2023-07-13T06:17:17;5.30;;;3.40;;
9115;SDS011;4593;53.652;10.168;2023-07-13T06:19:43;6.77;;;3.00;;
9115;SDS011;4593;53.652;10.168;2023-07-13T06:22:09;5.33;;;2.90;;
9115;SDS011;4593;53.652;10.168;2023-07-13T06:24:35;13.17;;;3.50;;
9115;SDS011;4593;53.652;10.168;2023-07-13T06:27:01;11.43;;;3.00;;
9115;SDS011;4593;53.652;10.168;2023-07-13T06:29:26;3.73;;;2.70;;
9115;SDS011;4593;53.652;10.168;2023-07-13T06:31:52;8.57;;;3.20;;
9115;SDS011;4593;53.652;10.168;2023-07-13T06:34:18;10.90;;;3.07;;
9115;SDS011;4593;53.652;10.168;2023-07-13T06:36:44;9.87;;;3.23;;
9115;SDS011;4593;53.652;10.168;2023-07-13T06:39:09;5.90;;;2.90;;
9115;SDS011;4593;53.652;10.168;2023-07-13T06:41:35;6.47;;;2.50;;
9115;SDS011;4593;53.652;10.168;2023-07-13T06:44:01;8.27;;;2.90;;
9115;SDS011;4593;53.652;10.168;2023-07-13T06:46:28;7.30;;;2.63;;
9115;SDS011;4593;53.652;10.168;2023-07-13T06:48:54;6.57;;;2.80;;
9115;SDS011;4593;53.652;10.168;2023-07-13T06:51:20;9.40;;;3.07;;
9115;SDS011;4593;53.652;10.168;2023-07-13T06:53:46;5.87;;;2.77;;
9115;SDS011;4593;53.652;10.168;2023-07-13T06:56:12;2.40;;;2.20;;
9115;SDS011;4593;53.652;10.168;2023-07-13T06:58:37;5.37;;;2.97;;
9115;SDS011;4593;53.652;10.168;2023-07-13T07:01:04;3.07;;;2.67;;
9115;SDS011;4593;53.652;10.168;2023-07-13T07:03:30;5.13;;;2.43;;
9115;SDS011;4593;53.652;10.168;2023-07-13T07:08:45;9.47;;;2.77;;
9115;SDS011;4593;53.652;10.168;2023-07-13T07:11:12;4.73;;;2.40;;
9115;SDS011;4593;53.652;10.168;2023-07-13T07:13:39;4.70;;;2.50;;
9115;SDS011;4593;53.652;10.168;2023-07-13T07:16:04;6.57;;;3.07;;
9115;SDS011;4593;53.652;10.168;2023-07-13T07:18:30;5.73;;;2.63;;
9115;SDS011;4593;53.652;10.168;2023-07-13T07:20:56;4.00;;;2.20;;
9115;SDS011;4593;53.652;10.168;2023-07-13T07:23:22;5.70;;;2.80;;
9115;SDS011;4593;53.652;10.168;2023-07-13T07:25:47;3.27;;;2.07;;
9115;SDS011;4593;53.652;10.168;2023-07-13T07:28:15;12.00;;;2.60;;
9115;SDS011;4593;53.652;10.168;2023-07-13T07:30:47;4.73;;;2.50;;
9115;SDS011;4593;53.652;10.168;2023-07-13T07:33:14;8.83;;;2.90;;
9115;SDS011;4593;53.652;10.168;2023-07-13T07:35:41;7.10;;;2.43;;
9115;SDS011;4593;53.652;10.168;2023-07-13T07:38:07;8.90;;;2.70;;
9115;SDS011;4593;53.652;10.168;2023-07-13T07:40:37;5.23;;;2.50;;
9115;SDS011;4593;53.652;10.168;2023-07-13T07:43:04;7.67;;;2.40;;
9115;SDS011;4593;53.652;10.168;2023-07-13T07:45:30;5.77;;;2.30;;
9115;SDS011;4593;53.652;10.168;2023-07-13T07:47:55;5.97;;;2.13;;
9115;SDS011;4593;53.652;10.168;2023-07-13T07:50:27;4.77;;;2.50;;
9115;SDS011;4593;53.652;10.168;2023-07-13T07:52:53;4.10;;;2.30;;
9115;SDS011;4593;53.652;10.168;2023-07-13T07:55:21;3.73;;;2.07;;
9115;SDS011;4593;53.652;10.168;2023-07-13T07:57:47;4.23;;;2.33;;
9115;SDS011;4593;53.652;10.168;2023-07-13T08:00:13;4.23;;;2.30;;
9115;SDS011;4593;53.652;10.168;2023-07-13T08:02:40;5.73;;;2.60;;
9115;SDS011;4593;53.652;10.168;2023-07-13T08:05:06;4.40;;;2.20;;
9115;SDS011;4593;53.652;10.168;2023-07-13T08:07:33;9.23;;;2.57;;
9115;SDS011;4593;53.652;10.168;2023-07-13T08:09:59;3.80;;;2.37;;
9115;SDS011;4593;53.652;10.168;2023-07-13T08:12:25;9.57;;;2.57;;
9115;SDS011;4593;53.652;10.168;2023-07-13T08:14:51;4.33;;;2.30;;
9115;SDS011;4593;53.652;10.168;2023-07-13T08:17:22;4.00;;;2.50;;
9115;SDS011;4593;53.652;10.168;2023-07-13T08:19:48;5.67;;;3.00;;
9115;SDS011;4593;53.652;10.168;2023-07-13T08:22:14;6.47;;;2.60;;
9115;SDS011;4593;53.652;10.168;2023-07-13T08:24:40;7.40;;;3.20;;
9115;SDS011;4593;53.652;10.168;2023-07-13T08:27:07;8.93;;;3.10;;
9115;SDS011;4593;53.652;10.168;2023-07-13T08:29:33;3.70;;;2.33;;
9115;SDS011;4593;53.652;10.168;2023-07-13T08:31:59;5.77;;;2.67;;
9115;SDS011;4593;53.652;10.168;2023-07-13T08:34:24;4.43;;;2.10;;
9115;SDS011;4593;53.652;10.168;2023-07-13T08:36:50;5.57;;;2.30;;
9115;SDS011;4593;53.652;10.168;2023-07-13T08:39:16;5.27;;;2.30;;
9115;SDS011;4593;53.652;10.168;2023-07-13T08:41:44;5.77;;;2.43;;
9115;SDS011;4593;53.652;10.168;2023-07-13T08:44:18;2.30;;;2.10;;
9115;SDS011;4593;53.652;10.168;2023-07-13T08:46:51;3.13;;;2.03;;
9115;SDS011;4593;53.652;10.168;2023-07-13T08:49:21;6.13;;;1.93;;
9115;SDS011;4593;53.652;10.168;2023-07-13T08:54:36;6.27;;;2.13;;
9115;SDS011;4593;53.652;10.168;2023-07-13T08:57:16;4.67;;;1.97;;
9115;SDS011;4593;53.652;10.168;2023-07-13T08:59:45;4.07;;;1.90;;
9115;SDS011;4593;53.652;10.168;2023-07-13T09:05:13;2.47;;;1.87;;
9115;SDS011;4593;53.652;10.168;2023-07-13T09:10:49;5.43;;;2.23;;
9115;SDS011;4593;53.652;10.168;2023-07-13T09:13:28;6.57;;;2.20;;
9115;SDS011;4593;53.652;10.168;2023-07-13T09:16:05;4.93;;;1.97;;
9115;SDS011;4593;53.652;10.168;2023-07-13T09:26:57;2.47;;;1.90;;
9115;SDS011;4593;53.652;10.168;2023-07-13T09:29:28;2.67;;;2.20;;
9115;SDS011;4593;53.652;10.168;2023-07-13T09:31:58;2.57;;;1.77;;
9115;SDS011;4593;53.652;10.168;2023-07-13T09:34:29;3.00;;;2.00;;
9115;SDS011;4593;53.652;10.168;2023-07-13T09:36:55;4.00;;;2.07;;
9115;SDS011;4593;53.652;10.168;2023-07-13T09:39:24;3.47;;;1.93;;
9115;SDS011;4593;53.652;10.168;2023-07-13T09:42:12;3.90;;;1.80;;
9115;SDS011;4593;53.652;10.168;2023-07-13T09:47:22;6.70;;;1.93;;
9115;SDS011;4593;53.652;10.168;2023-07-13T09:49:55;6.70;;;2.10;;
9115;SDS011;4593;53.652;10.168;2023-07-13T09:52:26;4.17;;;2.20;;
9115;SDS011;4593;53.652;10.168;2023-07-13T09:54:53;4.30;;;2.00;;
9115;SDS011;4593;53.652;10.168;2023-07-13T09:57:25;4.93;;;2.63;;
9115;SDS011;4593;53.652;10.168;2023-07-13T09:59:52;5.43;;;2.33;;
9115;SDS011;4593;53.652;10.168;2023-07-13T10:02:34;5.27;;;2.00;;
9115;SDS011;4593;53.652;10.168;2023-07-13T10:05:04;3.73;;;2.20;;
9115;SDS011;4593;53.652;10.168;2023-07-13T10:07:35;6.17;;;2.30;;
9115;SDS011;4593;53.652;10.168;2023-07-13T10:10:12;2.10;;;1.90;;
9115;SDS011;4593;53.652;10.168;2023-07-13T10:12:45;3.17;;;2.07;;
9115;SDS011;4593;53.652;10.168;2023-07-13T10:15:18;6.80;;;2.07;;
9115;SDS011;4593;53.652;10.168;2023-07-13T10:17:47;7.00;;;2.17;;
9115;SDS011;4593;53.652;10.168;2023-07-13T10:20:26;4.23;;;2.00;;
9115;SDS011;4593;53.652;10.168;2023-07-13T10:25:25;5.50;;;2.17;;
9115;SDS011;4593;53.652;10.168;2023-07-13T10:27:55;4.43;;;1.90;;
9115;SDS011;4593;53.652;10.168;2023-07-13T10:30:30;4.63;;;2.53;;
9115;SDS011;4593;53.652;10.168;2023-07-13T10:33:01;6.20;;;2.67;;
9115;SDS011;4593;53.652;10.168;2023-07-13T10:35:28;3.80;;;2.37;;
9115;SDS011;4593;53.652;10.168;2023-07-13T10:37:57;4.43;;;2.20;;
9115;SDS011;4593;53.652;10.168;2023-07-13T10:43:01;4.57;;;2.17;;
9115;SDS011;4593;53.652;10.168;2023-07-13T10:45:33;3.23;;;2.23;;
9115;SDS011;4593;53.652;10.168;2023-07-13T10:48:00;3.20;;;2.20;;
9115;SDS011;4593;53.652;10.168;2023-07-13T10:50:27;4.43;;;2.13;;
9115;SDS011;4593;53.652;10.168;2023-07-13T10:52:56;3.13;;;1.83;;
9115;SDS011;4593;53.652;10.168;2023-07-13T10:55:41;3.73;;;2.10;;
9115;SDS011;4593;53.652;10.168;2023-07-13T11:06:16;6.40;;;2.07;;
9115;SDS011;4593;53.652;10.168;2023-07-13T11:08:55;2.33;;;2.00;;
9115;SDS011;4593;53.652;10.168;2023-07-13T11:14:04;2.20;;;1.80;;
9115;SDS011;4593;53.652;10.168;2023-07-13T11:16:50;5.53;;;2.20;;
9115;SDS011;4593;53.652;10.168;2023-07-13T11:24:29;5.40;;;2.20;;
9115;SDS011;4593;53.652;10.168;2023-07-13T11:32:50;2.27;;;2.00;;
9115;SDS011;4593;53.652;10.168;2023-07-13T11:35:33;4.83;;;2.20;;
9115;SDS011;4593;53.652;10.168;2023-07-13T11:38:01;2.27;;;1.80;;
9115;SDS011;4593;53.652;10.168;2023-07-13T11:40:37;3.57;;;1.93;;
9115;SDS011;4593;53.652;10.168;2023-07-13T11:43:02;2.10;;;1.90;;
9115;SDS011;4593;53.652;10.168;2023-07-13T11:45:32;2.77;;;2.10;;
9115;SDS011;4593;53.652;10.168;2023-07-13T11:47:58;2.20;;;2.00;;
9115;SDS011;4593;53.652;10.168;2023-07-13T11:50:26;3.03;;;2.00;;
9115;SDS011;4593;53.652;10.168;2023-07-13T11:52:52;2.70;;;2.10;;
9115;SDS011;4593;53.652;10.168;2023-07-13T11:55:21;7.53;;;2.30;;
9115;SDS011;4593;53.652;10.168;2023-07-13T12:00:25;5.47;;;2.27;;
9115;SDS011;4593;53.652;10.168;2023-07-13T12:02:54;2.73;;;1.80;;
9115;SDS011;4593;53.652;10.168;2023-07-13T12:05:22;3.97;;;2.00;;
9115;SDS011;4593;53.652;10.168;2023-07-13T12:07:48;2.63;;;1.90;;
9115;SDS011;4593;53.652;10.168;2023-07-13T12:10:22;3.67;;;2.10;;
9115;SDS011;4593;53.652;10.168;2023-07-13T12:12:55;5.20;;;2.10;;
9115;SDS011;4593;53.652;10.168;2023-07-13T12:15:37;4.03;;;1.90;;
9115;SDS011;4593;53.652;10.168;2023-07-13T12:20:41;4.47;;;2.10;;
9115;SDS011;4593;53.652;10.168;2023-07-13T12:25:55;4.67;;;1.83;;
9115;SDS011;4593;53.652;10.168;2023-07-13T12:28:28;5.37;;;1.70;;
9115;SDS011;4593;53.652;10.168;2023-07-13T12:31:00;3.23;;;2.00;;
9115;SDS011;4593;53.652;10.168;2023-07-13T12:33:28;2.37;;;2.13;;
9115;SDS011;4593;53.652;10.168;2023-07-13T12:35:54;5.37;;;2.07;;
9115;SDS011;4593;53.652;10.168;2023-07-13T12:38:20;7.17;;;1.97;;
9115;SDS011;4593;53.652;10.168;2023-07-13T12:40:49;5.30;;;2.30;;
9115;SDS011;4593;53.652;10.168;2023-07-13T12:43:16;9.17;;;2.80;;
9115;SDS011;4593;53.652;10.168;2023-07-13T12:46:02;5.10;;;2.53;;
9115;SDS011;4593;53.652;10.168;2023-07-13T12:48:29;4.67;;;2.43;;
9115;SDS011;4593;53.652;10.168;2023-07-13T12:50:55;4.70;;;2.33;;
9115;SDS011;4593;53.652;10.168;2023-07-13T12:53:22;2.57;;;2.37;;
9115;SDS011;4593;53.652;10.168;2023-07-13T12:55:54;5.53;;;2.40;;
9115;SDS011;4593;53.652;10.168;2023-07-13T12:58:40;6.47;;;2.53;;
9115;SDS011;4593;53.652;10.168;2023-07-13T13:01:09;4.47;;;2.83;;
9115;SDS011;4593;53.652;10.168;2023-07-13T13:03:44;4.77;;;2.90;;
9115;SDS011;4593;53.652;10.168;2023-07-13T13:08:45;2.77;;;2.40;;
9115;SDS011;4593;53.652;10.168;2023-07-13T13:11:13;5.77;;;2.40;;
9115;SDS011;4593;53.652;10.168;2023-07-13T13:13:41;3.13;;;2.83;;
9115;SDS011;4593;53.652;10.168;2023-07-13T13:16:50;2.97;;;2.67;;
9115;SDS011;4593;53.652;10.168;2023-07-13T13:18:59;6.40;;;2.90;;
9115;SDS011;4593;53.652;10.168;2023-07-13T13:21:28;2.47;;;2.27;;
9115;SDS011;4593;53.652;10.168;2023-07-13T13:23:54;2.87;;;2.40;;
9115;SDS011;4593;53.652;10.168;2023-07-13T13:26:21;6.83;;;2.47;;
9115;SDS011;4593;53.652;10.168;2023-07-13T13:28:47;4.90;;;2.57;;
9115;SDS011;4593;53.652;10.168;2023-07-13T13:31:14;5.47;;;2.70;;
9115;SDS011;4593;53.652;10.168;2023-07-13T13:33:44;3.83;;;2.30;;
9115;SDS011;4593;53.652;10.168;2023-07-13T13:38:44;2.53;;;2.33;;
9115;SDS011;4593;53.652;10.168;2023-07-13T13:41:11;4.37;;;2.43;;
9115;SDS011;4593;53.652;10.168;2023-07-13T13:43:38;2.20;;;2.00;;
9115;SDS011;4593;53.652;10.168;2023-07-13T13:46:09;2.70;;;2.30;;
9115;SDS011;4593;53.652;10.168;2023-07-13T13:48:41;2.53;;;2.33;;
9115;SDS011;4593;53.652;10.168;2023-07-13T13:51:14;2.00;;;1.80;;
9115;SDS011;4593;53.652;10.168;2023-07-13T13:53:42;3.90;;;1.83;;
9115;SDS011;4593;53.652;10.168;2023-07-13T13:56:08;2.27;;;1.97;;
9115;SDS011;4593;53.652;10.168;2023-07-13T13:58:34;2.20;;;2.03;;
9115;SDS011;4593;53.652;10.168;2023-07-13T14:01:00;5.77;;;2.20;;
9115;SDS011;4593;53.652;10.168;2023-07-13T14:03:26;2.63;;;2.20;;
9115;SDS011;4593;53.652;10.168;2023-07-13T14:05:53;3.30;;;2.03;;
9115;SDS011;4593;53.652;10.168;2023-07-13T14:08:20;3.77;;;2.23;;
9115;SDS011;4593;53.652;10.168;2023-07-13T14:10:47;4.47;;;2.20;;
9115;SDS011;4593;53.652;10.168;2023-07-13T14:13:26;2.43;;;2.23;;
9115;SDS011;4593;53.652;10.168;2023-07-13T14:16:08;2.60;;;2.10;;
9115;SDS011;4593;53.652;10.168;2023-07-13T14:18:40;2.37;;;1.93;;
9115;SDS011;4593;53.652;10.168;2023-07-13T14:21:16;3.23;;;1.83;;
9115;SDS011;4593;53.652;10.168;2023-07-13T14:23:44;2.10;;;1.87;;
9115;SDS011;4593;53.652;10.168;2023-07-13T14:26:11;2.03;;;1.93;;
9115;SDS011;4593;53.652;10.168;2023-07-13T14:28:58;3.77;;;3.30;;
9115;SDS011;4593;53.652;10.168;2023-07-13T14:31:26;2.97;;;2.03;;
9115;SDS011;4593;53.652;10.168;2023-07-13T14:33:56;3.17;;;2.00;;
9115;SDS011;4593;53.652;10.168;2023-07-13T14:38:50;3.33;;;2.07;;
9115;SDS011;4593;53.652;10.168;2023-07-13T14:41:16;4.03;;;2.30;;
9115;SDS011;4593;53.652;10.168;2023-07-13T14:43:41;3.10;;;1.97;;
9115;SDS011;4593;53.652;10.168;2023-07-13T14:46:08;2.20;;;1.87;;
9115;SDS011;4593;53.652;10.168;2023-07-13T14:48:47;2.20;;;2.00;;
9115;SDS011;4593;53.652;10.168;2023-07-13T14:51:14;3.10;;;2.07;;
9115;SDS011;4593;53.652;10.168;2023-07-13T14:53:40;3.40;;;2.20;;
9115;SDS011;4593;53.652;10.168;2023-07-13T14:56:09;4.50;;;2.40;;
9115;SDS011;4593;53.652;10.168;2023-07-13T14:58:36;2.47;;;2.27;;
9115;SDS011;4593;53.652;10.168;2023-07-13T15:01:07;2.80;;;2.23;;
9115;SDS011;4593;53.652;10.168;2023-07-13T15:03:44;2.73;;;2.00;;
9115;SDS011;4593;53.652;10.168;2023-07-13T15:06:11;2.77;;;2.13;;
9115;SDS011;4593;53.652;10.168;2023-07-13T15:08:38;2.63;;;2.27;;
9115;SDS011;4593;53.652;10.168;2023-07-13T15:11:06;3.13;;;2.30;;
9115;SDS011;4593;53.652;10.168;2023-07-13T15:13:37;5.17;;;2.30;;
9115;SDS011;4593;53.652;10.168;2023-07-13T15:16:05;3.50;;;2.30;;
9115;SDS011;4593;53.652;10.168;2023-07-13T15:18:46;2.40;;;2.20;;
9115;SDS011;4593;53.652;10.168;2023-07-13T15:21:14;3.20;;;2.07;;
9115;SDS011;4593;53.652;10.168;2023-07-13T15:23:45;2.40;;;2.20;;
9115;SDS011;4593;53.652;10.168;2023-07-13T15:26:12;2.50;;;1.90;;
9115;SDS011;4593;53.652;10.168;2023-07-13T15:28:40;3.90;;;2.20;;
9115;SDS011;4593;53.652;10.168;2023-07-13T15:31:17;5.13;;;2.40;;
9115;SDS011;4593;53.652;10.168;2023-07-13T15:33:43;2.40;;;2.10;;
9115;SDS011;4593;53.652;10.168;2023-07-13T15:36:09;2.10;;;1.97;;
9115;SDS011;4593;53.652;10.168;2023-07-13T15:38:34;5.30;;;2.00;;
9115;SDS011;4593;53.652;10.168;2023-07-13T15:41:37;3.40;;;2.10;;
9115;SDS011;4593;53.652;10.168;2023-07-13T15:43:57;2.87;;;1.90;;
9115;SDS011;4593;53.652;10.168;2023-07-13T15:46:24;2.40;;;2.20;;
9115;SDS011;4593;53.652;10.168;2023-07-13T15:48:52;3.93;;;2.17;;
9115;SDS011;4593;53.652;10.168;2023-07-13T15:51:26;3.63;;;1.97;;
9115;SDS011;4593;53.652;10.168;2023-07-13T15:53:54;3.57;;;2.43;;
9115;SDS011;4593;53.652;10.168;2023-07-13T15:56:26;2.40;;;2.20;;
9115;SDS011;4593;53.652;10.168;2023-07-13T15:58:53;3.30;;;1.90;;
9115;SDS011;4593;53.652;10.168;2023-07-13T16:01:20;2.07;;;1.93;;
9115;SDS011;4593;53.652;10.168;2023-07-13T16:03:48;4.30;;;2.07;;
9115;SDS011;4593;53.652;10.168;2023-07-13T16:06:15;3.53;;;2.10;;
9115;SDS011;4593;53.652;10.168;2023-07-13T16:08:50;3.20;;;1.80;;
9115;SDS011;4593;53.652;10.168;2023-07-13T16:11:22;3.37;;;2.10;;
9115;SDS011;4593;53.652;10.168;2023-07-13T16:13:49;2.00;;;1.90;;